createdAt,value
2018-07-28T00:01:35.428Z,22.36
2018-07-28T00:04:02.366Z,22.30
2018-07-28T00:06:29.314Z,22.28
2018-07-28T00:08:56.217Z,22.24
2018-07-28T00:11:23.153Z,22.36
2018-07-28T00:13:50.064Z,22.27
2018-07-28T00:16:16.974Z,22.24
2018-07-28T00:18:43.880Z,22.23
2018-07-28T00:21:10.780Z,22.23
2018-07-28T00:23:37.679Z,22.18
2018-07-28T00:26:10.542Z,22.18
2018-07-28T00:28:37.438Z,22.19
2018-07-28T00:31:04.353Z,22.13
2018-07-28T00:33:31.252Z,22.09
2018-07-28T00:35:58.174Z,22.11
2018-07-28T00:38:25.065Z,22.05
2018-07-28T00:40:51.971Z,21.92
2018-07-28T00:43:19.129Z,22.07
2018-07-28T00:45:46.051Z,22.05
2018-07-28T00:48:12.957Z,22.00
2018-07-28T00:50:40.018Z,22.06
2018-07-28T00:53:09.198Z,22.05
2018-07-28T00:55:37.119Z,22.00
2018-07-28T00:58:04.039Z,21.96
2018-07-28T01:00:30.950Z,21.96
2018-07-28T01:02:57.896Z,21.99
2018-07-28T01:05:24.803Z,22.01
2018-07-28T01:07:51.710Z,21.96
2018-07-28T01:10:18.620Z,21.95
2018-07-28T01:12:45.514Z,21.95
2018-07-28T01:15:13.580Z,22.03
2018-07-28T01:17:41.049Z,21.98
2018-07-28T01:20:09.443Z,21.97
2018-07-28T01:22:36.588Z,21.99
2018-07-28T01:25:04.824Z,21.99
2018-07-28T01:27:32.276Z,21.99
2018-07-28T01:29:59.183Z,21.94
2018-07-28T01:32:26.664Z,21.94
2018-07-28T01:34:53.567Z,21.90
2018-07-28T01:37:20.894Z,21.89
2018-07-28T01:39:47.780Z,21.93
2018-07-28T01:42:14.739Z,21.85
2018-07-28T01:44:42.056Z,21.88
2018-07-28T01:47:09.083Z,21.79
2018-07-28T01:49:35.986Z,21.77
2018-07-28T01:52:02.903Z,21.72
2018-07-28T01:54:29.793Z,21.75
2018-07-28T01:56:56.717Z,21.70
2018-07-28T01:59:23.586Z,21.61
2018-07-28T02:01:50.493Z,21.68
2018-07-28T02:04:17.401Z,21.68
2018-07-28T02:06:44.324Z,21.66
2018-07-28T02:09:11.655Z,21.57
2018-07-28T02:11:38.808Z,21.55
2018-07-28T02:14:05.725Z,21.52
2018-07-28T02:16:33.548Z,21.51
2018-07-28T02:19:00.448Z,21.50
2018-07-28T02:21:27.771Z,21.50
2018-07-28T02:23:54.685Z,21.49
2018-07-28T02:26:22.208Z,21.41
2018-07-28T02:28:49.127Z,21.40
2018-07-28T02:31:16.042Z,21.37
2018-07-28T02:33:42.951Z,21.46
2018-07-28T02:36:09.897Z,21.37
2018-07-28T02:38:36.802Z,21.38
2018-07-28T02:41:03.731Z,21.36
2018-07-28T02:43:30.656Z,21.29
2018-07-28T02:45:57.573Z,21.26
2018-07-28T02:48:24.495Z,21.30
2018-07-28T02:50:51.411Z,21.25
2018-07-28T02:53:19.804Z,21.29
2018-07-28T02:55:46.705Z,21.28
2018-07-28T02:58:13.615Z,21.24
2018-07-28T03:00:40.562Z,21.22
2018-07-28T03:03:07.497Z,21.28
2018-07-28T03:05:39.378Z,21.26
2018-07-28T03:08:06.669Z,21.24
2018-07-28T03:10:33.653Z,21.23
2018-07-28T03:13:00.556Z,21.24
2018-07-28T03:15:32.148Z,21.19
2018-07-28T03:18:01.035Z,21.22
2018-07-28T03:20:28.071Z,21.19
2018-07-28T03:22:54.982Z,21.19
2018-07-28T03:25:21.904Z,21.26
2018-07-28T03:27:48.835Z,21.18
2018-07-28T03:30:16.061Z,21.16
2018-07-28T03:32:43.039Z,21.18
2018-07-28T03:35:10.287Z,21.18
2018-07-28T03:37:37.224Z,21.10
2018-07-28T03:40:04.361Z,21.10
2018-07-28T03:42:31.311Z,21.18
2018-07-28T03:44:58.209Z,21.19
2018-07-28T03:47:25.140Z,21.21
2018-07-28T03:49:52.025Z,21.22
2018-07-28T03:52:18.924Z,21.19
2018-07-28T03:54:45.832Z,21.17
2018-07-28T03:57:12.737Z,21.17
2018-07-28T03:59:39.663Z,21.22
2018-07-28T04:02:06.596Z,21.18
2018-07-28T04:04:33.496Z,21.23
2018-07-28T04:07:00.385Z,21.21
2018-07-28T04:09:27.268Z,21.22
2018-07-28T04:11:54.155Z,21.27
2018-07-28T04:14:21.032Z,21.31
2018-07-28T04:16:47.948Z,21.34
2018-07-28T04:19:14.845Z,21.29
2018-07-28T04:21:41.724Z,21.34
2018-07-28T04:24:08.616Z,21.39
2018-07-28T04:26:35.507Z,21.34
2018-07-28T04:29:02.392Z,21.41
2018-07-28T04:31:29.268Z,21.49
2018-07-28T04:33:56.166Z,21.46
2018-07-28T04:36:23.053Z,21.52
2018-07-28T04:38:49.946Z,21.53
2018-07-28T04:41:16.872Z,21.61
2018-07-28T04:43:43.792Z,21.71
2018-07-28T04:46:10.680Z,21.68
2018-07-28T04:48:37.564Z,21.71
2018-07-28T04:51:04.448Z,21.81
2018-07-28T04:53:34.514Z,21.86
2018-07-28T04:56:01.415Z,21.79
2018-07-28T04:58:28.340Z,21.82
2018-07-28T05:00:55.233Z,21.87
2018-07-28T05:03:22.144Z,22.01
2018-07-28T05:05:49.034Z,21.97
2018-07-28T05:08:15.938Z,22.09
2018-07-28T05:10:42.808Z,22.19
2018-07-28T05:13:09.697Z,22.16
2018-07-28T05:15:36.578Z,22.24
2018-07-28T05:18:03.478Z,22.29
2018-07-28T05:20:30.380Z,22.27
2018-07-28T05:22:57.281Z,22.39
2018-07-28T05:25:24.150Z,22.55
2018-07-28T05:27:51.020Z,22.50
2018-07-28T05:30:17.937Z,22.61
2018-07-28T05:32:44.804Z,22.58
2018-07-28T05:35:11.690Z,22.66
2018-07-28T05:37:38.809Z,22.71
2018-07-28T05:40:05.721Z,22.85
2018-07-28T05:42:32.702Z,22.97
2018-07-28T05:44:59.540Z,22.93
2018-07-28T05:47:26.432Z,23.05
2018-07-28T05:49:53.328Z,23.07
2018-07-28T05:52:20.215Z,23.25
2018-07-28T05:54:47.096Z,23.43
2018-07-28T05:57:13.964Z,23.41
2018-07-28T05:59:40.863Z,23.45
2018-07-28T06:02:07.821Z,23.37
2018-07-28T06:04:34.664Z,23.54
2018-07-28T06:07:01.549Z,23.62
2018-07-28T06:09:28.465Z,23.89
2018-07-28T06:11:55.370Z,24.11
2018-07-28T06:14:22.304Z,24.27
2018-07-28T06:16:49.183Z,24.27
2018-07-28T06:19:16.085Z,24.43
2018-07-28T06:21:42.960Z,24.41
2018-07-28T06:24:09.880Z,24.38
2018-07-28T06:26:36.756Z,24.41
2018-07-28T06:29:03.930Z,24.79
2018-07-28T06:31:30.806Z,24.94
2018-07-28T06:33:57.714Z,24.95
2018-07-28T06:36:24.604Z,24.88
2018-07-28T06:38:51.484Z,25.10
2018-07-28T06:41:18.408Z,25.08
2018-07-28T06:43:45.305Z,25.24
2018-07-28T06:46:12.230Z,25.32
2018-07-28T06:48:39.092Z,25.44
2018-07-28T06:51:06.059Z,25.53
2018-07-28T06:53:32.958Z,25.67
2018-07-28T06:55:59.879Z,25.97
2018-07-28T06:58:26.807Z,26.00
2018-07-28T07:00:53.680Z,26.11
2018-07-28T07:03:20.571Z,26.20
2018-07-28T07:05:47.494Z,26.17
2018-07-28T07:08:14.372Z,26.46
2018-07-28T07:10:41.287Z,26.51
2018-07-28T07:13:08.213Z,26.85
2018-07-28T07:15:35.104Z,26.95
2018-07-28T07:18:02.017Z,26.92
2018-07-28T07:20:28.904Z,27.04
2018-07-28T07:22:55.781Z,27.24
2018-07-28T07:25:22.685Z,27.34
2018-07-28T07:27:49.569Z,27.54
2018-07-28T07:30:16.475Z,27.33
2018-07-28T07:32:43.357Z,27.72
2018-07-28T07:35:10.237Z,27.92
2018-07-28T07:37:37.104Z,27.85
2018-07-28T07:40:04.319Z,28.09
2018-07-28T07:42:31.184Z,28.27
2018-07-28T07:44:58.096Z,28.51
2018-07-28T07:47:25.006Z,28.59
2018-07-28T07:49:51.875Z,28.69
2018-07-28T07:52:18.763Z,28.66
2018-07-28T07:54:45.645Z,28.53
2018-07-28T07:57:12.523Z,28.92
2018-07-28T07:59:39.720Z,28.79
2018-07-28T08:02:06.650Z,29.03
2018-07-28T08:04:33.772Z,29.16
2018-07-28T08:07:00.706Z,29.32
2018-07-28T08:09:27.596Z,29.56
2018-07-28T08:11:54.486Z,29.48
2018-07-28T08:14:21.444Z,29.67
2018-07-28T08:16:48.355Z,29.11
2018-07-28T08:19:15.244Z,29.59
2018-07-28T08:21:42.154Z,29.87
2018-07-28T08:24:09.055Z,30.34
2018-07-28T08:26:35.992Z,30.15
2018-07-28T08:29:02.856Z,29.84
2018-07-28T08:31:29.769Z,29.64
2018-07-28T08:33:56.760Z,29.83
2018-07-28T08:36:24.428Z,29.66
2018-07-28T08:38:51.296Z,29.69
2018-07-28T08:41:18.195Z,29.69
2018-07-28T08:43:45.420Z,29.86
2018-07-28T08:46:12.308Z,29.95
2018-07-28T08:48:39.183Z,30.14
2018-07-28T08:51:06.081Z,30.27
2018-07-28T08:53:33.212Z,30.23
2018-07-28T08:56:00.129Z,30.16
2018-07-28T08:58:26.996Z,30.38
2018-07-28T09:00:53.881Z,30.30
2018-07-28T09:03:20.867Z,30.44
2018-07-28T09:05:47.789Z,30.47
2018-07-28T09:08:14.717Z,31.34
2018-07-28T09:10:41.667Z,30.97
2018-07-28T09:13:08.484Z,30.62
2018-07-28T09:15:35.383Z,30.67
2018-07-28T09:18:02.345Z,30.59
2018-07-28T09:20:29.215Z,30.33
2018-07-28T09:22:56.109Z,29.61
2018-07-28T09:25:22.993Z,29.23
2018-07-28T09:27:49.889Z,29.27
2018-07-28T09:30:16.773Z,29.45
2018-07-28T09:32:43.676Z,30.46
2018-07-28T09:35:10.577Z,30.77
2018-07-28T09:37:37.485Z,31.37
2018-07-28T09:40:04.604Z,31.18
2018-07-28T09:42:31.507Z,31.31
2018-07-28T09:44:58.397Z,31.50
2018-07-28T09:47:32.026Z,31.25
2018-07-28T09:49:58.921Z,31.44
2018-07-28T09:52:25.792Z,31.13
2018-07-28T09:54:52.668Z,31.28
2018-07-28T09:57:19.568Z,31.88
2018-07-28T09:59:46.448Z,32.37
2018-07-28T10:02:13.348Z,32.16
2018-07-28T10:04:40.220Z,32.14
2018-07-28T10:07:07.136Z,32.31
2018-07-28T10:09:34.021Z,32.63
2018-07-28T10:12:00.911Z,32.63
2018-07-28T10:14:27.775Z,32.50
2018-07-28T10:16:54.672Z,32.21
2018-07-28T10:19:21.543Z,31.92
2018-07-28T10:21:48.418Z,32.50
2018-07-28T10:24:15.297Z,32.25
2018-07-28T10:26:42.165Z,32.11
2018-07-28T10:29:09.036Z,32.44
2018-07-28T10:31:35.941Z,32.72
2018-07-28T10:34:02.900Z,32.51
2018-07-28T10:36:29.826Z,32.42
2018-07-28T10:38:56.672Z,32.38
2018-07-28T10:41:23.556Z,32.52
2018-07-28T10:43:50.427Z,32.59
2018-07-28T10:46:20.236Z,31.98
2018-07-28T10:48:47.799Z,32.26
2018-07-28T10:51:14.673Z,31.90
2018-07-28T10:53:41.563Z,32.30
2018-07-28T10:56:08.432Z,32.67
2018-07-28T10:58:35.323Z,32.42
2018-07-28T11:01:02.215Z,32.42
2018-07-28T11:03:29.128Z,33.13
2018-07-28T11:05:56.013Z,32.70
2018-07-28T11:08:22.907Z,32.63
2018-07-28T11:10:49.784Z,33.09
2018-07-28T11:13:16.752Z,33.31
2018-07-28T11:15:43.900Z,33.49
2018-07-28T11:18:10.796Z,32.50
2018-07-28T11:20:37.680Z,33.05
2018-07-28T11:23:04.559Z,32.03
2018-07-28T11:25:31.440Z,32.73
2018-07-28T11:27:58.577Z,33.56
2018-07-28T11:30:25.452Z,33.26
2018-07-28T11:33:03.992Z,33.37
2018-07-28T11:35:42.562Z,33.58
2018-07-28T11:38:30.220Z,33.92
2018-07-28T11:41:08.868Z,34.13
2018-07-28T11:43:47.364Z,34.15
2018-07-28T11:46:14.274Z,33.44
2018-07-28T11:48:41.185Z,33.10
2018-07-28T11:51:08.487Z,32.75
2018-07-28T11:53:35.561Z,32.31
2018-07-28T11:56:02.839Z,32.85
2018-07-28T11:58:29.845Z,32.68
2018-07-28T12:00:56.757Z,33.82
2018-07-28T12:03:23.664Z,34.16
2018-07-28T12:05:50.553Z,33.94
2018-07-28T12:08:17.558Z,33.56
2018-07-28T12:10:44.443Z,32.81
2018-07-28T12:13:11.339Z,34.02
2018-07-28T12:15:38.231Z,33.60
2018-07-28T12:18:05.501Z,32.91
2018-07-28T12:20:32.373Z,32.55
2018-07-28T12:22:59.296Z,32.71
2018-07-28T12:25:26.195Z,32.59
2018-07-28T12:27:53.181Z,32.71
2018-07-28T12:30:20.105Z,32.54
2018-07-28T12:32:47.022Z,33.18
2018-07-28T12:35:13.929Z,32.78
2018-07-28T12:37:40.831Z,32.06
2018-07-28T12:40:07.760Z,32.47
2018-07-28T12:42:34.644Z,33.79
2018-07-28T12:45:01.564Z,33.47
2018-07-28T12:47:29.178Z,33.33
2018-07-28T12:49:56.099Z,32.55
2018-07-28T12:52:23.015Z,32.33
2018-07-28T12:54:49.939Z,32.46
2018-07-28T12:57:16.816Z,33.88
2018-07-28T12:59:43.732Z,34.59
2018-07-28T13:02:10.669Z,32.94
2018-07-28T13:04:37.590Z,32.07
2018-07-28T13:07:04.481Z,31.99
2018-07-28T13:09:31.388Z,32.07
2018-07-28T13:11:58.288Z,32.16
2018-07-28T13:14:25.235Z,32.41
2018-07-28T13:16:52.125Z,32.39
2018-07-28T13:19:19.027Z,32.66
2018-07-28T13:21:45.909Z,33.63
2018-07-28T13:24:12.812Z,33.40
2018-07-28T13:26:39.708Z,32.53
2018-07-28T13:29:06.608Z,33.11
2018-07-28T13:31:33.503Z,33.90
2018-07-28T13:34:00.409Z,33.86
2018-07-28T13:36:27.280Z,33.74
2018-07-28T13:41:27.763Z,33.22
2018-07-28T13:43:54.676Z,32.75
2018-07-28T13:46:21.601Z,32.34
2018-07-28T13:48:48.502Z,32.10
2018-07-28T13:51:15.413Z,32.12
2018-07-28T13:53:42.347Z,32.24
2018-07-28T13:56:09.251Z,32.01
2018-07-28T13:58:36.129Z,31.95
2018-07-28T14:01:03.028Z,31.95
2018-07-28T14:03:29.912Z,31.91
2018-07-28T14:05:56.850Z,31.88
2018-07-28T14:08:23.744Z,31.74
2018-07-28T14:10:50.656Z,31.77
2018-07-28T14:13:17.543Z,31.70
2018-07-28T14:15:44.456Z,31.47
2018-07-28T14:18:11.371Z,31.36
2018-07-28T14:20:38.284Z,31.21
2018-07-28T14:23:05.201Z,29.60
2018-07-28T14:25:32.117Z,27.25
2018-07-28T14:27:59.003Z,26.22
2018-07-28T14:30:25.914Z,25.27
2018-07-28T14:32:52.811Z,25.12
2018-07-28T14:35:19.721Z,24.53
2018-07-28T14:37:46.644Z,24.49
2018-07-28T14:40:13.548Z,23.74
2018-07-28T14:42:40.416Z,22.58
2018-07-28T14:45:08.497Z,22.04
2018-07-28T14:47:35.344Z,21.40
2018-07-28T14:50:02.255Z,21.63
2018-07-28T14:52:29.148Z,21.72
2018-07-28T14:54:57.643Z,21.64
2018-07-28T14:57:24.524Z,21.47
2018-07-28T14:59:51.424Z,21.50
2018-07-28T15:02:18.300Z,21.43
2018-07-28T15:04:45.219Z,21.27
2018-07-28T15:07:12.129Z,21.06
2018-07-28T15:09:39.023Z,20.85
2018-07-28T15:12:06.104Z,20.88
2018-07-28T15:14:33.005Z,20.86
2018-07-28T15:16:59.931Z,20.72
2018-07-28T15:19:26.822Z,21.03
2018-07-28T15:21:53.741Z,21.14
2018-07-28T15:24:20.727Z,20.97
2018-07-28T15:26:47.962Z,20.74
2018-07-28T15:29:14.955Z,20.78
2018-07-28T15:31:41.868Z,20.80
2018-07-28T15:34:08.767Z,20.80
2018-07-28T15:36:35.675Z,20.82
2018-07-28T15:39:02.684Z,20.72
2018-07-28T15:41:29.588Z,20.76
2018-07-28T15:43:56.478Z,20.97
2018-07-28T15:46:23.369Z,20.76
2018-07-28T15:48:50.253Z,20.82
2018-07-28T15:51:17.145Z,20.89
2018-07-28T15:53:44.028Z,20.70
2018-07-28T15:56:10.959Z,20.60
2018-07-28T15:58:37.843Z,20.53
2018-07-28T16:01:04.787Z,20.44
2018-07-28T16:03:31.677Z,20.54
2018-07-28T16:05:58.618Z,20.55
2018-07-28T16:08:25.491Z,20.58
2018-07-28T16:10:52.384Z,20.44
2018-07-28T16:13:20.127Z,20.40
2018-07-28T16:15:47.292Z,20.62
2018-07-28T16:18:14.170Z,20.66
2018-07-28T16:20:41.068Z,20.90
2018-07-28T16:23:08.125Z,20.90
2018-07-28T16:25:35.016Z,21.16
2018-07-28T16:28:01.894Z,21.30
2018-07-28T16:30:28.810Z,21.20
2018-07-28T16:32:55.689Z,21.31
2018-07-28T16:35:22.568Z,21.06
2018-07-28T16:37:49.504Z,21.27
2018-07-28T16:40:16.448Z,21.12
2018-07-28T16:42:43.283Z,21.09
2018-07-28T16:45:10.182Z,20.96
2018-07-28T16:47:37.094Z,21.01
2018-07-28T16:50:03.984Z,21.13
2018-07-28T16:52:30.865Z,21.15
2018-07-28T16:54:57.764Z,21.04
2018-07-28T16:57:24.654Z,20.88
2018-07-28T16:59:51.544Z,20.91
2018-07-28T17:02:18.444Z,20.94
2018-07-28T17:04:45.342Z,20.94
2018-07-28T17:07:12.266Z,20.98
2018-07-28T17:09:39.312Z,21.20
2018-07-28T17:12:06.192Z,21.12
2018-07-28T17:14:33.082Z,20.99
2018-07-28T17:16:59.958Z,20.94
2018-07-28T17:19:26.816Z,21.00
2018-07-28T17:21:53.700Z,21.11
2018-07-28T17:24:20.594Z,21.00
2018-07-28T17:26:47.864Z,21.10
2018-07-28T17:29:14.731Z,21.09
2018-07-28T17:31:42.436Z,20.97
2018-07-28T17:34:09.972Z,20.85
2018-07-28T17:36:37.654Z,20.84
2018-07-28T17:39:06.497Z,20.75
2018-07-28T17:41:33.373Z,20.92
2018-07-28T17:44:00.728Z,21.00
2018-07-28T17:46:27.608Z,21.03
2018-07-28T17:48:54.577Z,20.94
2018-07-28T17:51:21.448Z,20.87
2018-07-28T17:53:48.345Z,20.99
2018-07-28T17:56:15.202Z,20.92
2018-07-28T17:58:42.092Z,20.93
2018-07-28T18:01:08.959Z,20.93
2018-07-28T18:03:35.848Z,20.85
2018-07-28T18:06:02.975Z,20.94
2018-07-28T18:08:29.887Z,21.30
2018-07-28T18:10:56.780Z,21.11
2018-07-28T18:13:23.972Z,20.99
2018-07-28T18:15:50.800Z,21.15
2018-07-28T18:18:17.696Z,21.03
2018-07-28T18:20:44.551Z,20.95
2018-07-28T18:23:11.424Z,21.22
2018-07-28T18:25:38.337Z,21.31
2018-07-28T18:28:05.229Z,21.15
2018-07-28T18:30:32.167Z,21.53
2018-07-28T18:32:59.004Z,21.08
2018-07-28T18:35:25.880Z,21.01
2018-07-28T18:37:52.781Z,21.26
2018-07-28T18:40:19.672Z,21.28
2018-07-28T18:42:46.570Z,21.07
2018-07-28T18:45:13.476Z,21.04
2018-07-28T18:47:41.688Z,20.96
2018-07-28T18:50:08.621Z,20.97
2018-07-28T18:52:35.829Z,20.95
2018-07-28T18:55:02.794Z,20.88
2018-07-28T18:57:29.656Z,20.75
2018-07-28T18:59:56.533Z,20.67
2018-07-28T19:02:23.500Z,20.66
2018-07-28T19:04:50.391Z,20.76
2018-07-28T19:07:17.293Z,20.89
2018-07-28T19:09:48.320Z,20.84
2018-07-28T19:12:15.176Z,20.86
2018-07-28T19:14:42.053Z,20.69
2018-07-28T19:17:09.064Z,20.73
2018-07-28T19:19:35.964Z,20.69
2018-07-28T19:22:04.693Z,20.54
2018-07-28T19:24:31.578Z,20.57
2018-07-28T19:26:58.444Z,20.65
2018-07-28T19:29:31.119Z,20.61
2018-07-28T19:31:58.006Z,20.50
2018-07-28T19:34:24.895Z,20.56
2018-07-28T19:36:57.440Z,20.61
2018-07-28T19:39:24.317Z,20.55
2018-07-28T19:41:57.056Z,20.52
2018-07-28T19:44:23.954Z,20.43
2018-07-28T19:46:50.868Z,20.47
2018-07-28T19:49:17.748Z,20.42
2018-07-28T19:51:44.635Z,20.38
2018-07-28T19:54:11.594Z,20.41
2018-07-28T19:56:38.453Z,20.47
2018-07-28T19:59:05.361Z,20.44
2018-07-28T20:01:32.253Z,20.56
2018-07-28T20:03:59.144Z,20.58
2018-07-28T20:06:26.020Z,20.57
2018-07-28T20:08:52.956Z,20.62
2018-07-28T20:11:19.832Z,20.65
2018-07-28T20:13:46.755Z,20.80
2018-07-28T20:16:13.747Z,20.73
2018-07-28T20:18:40.702Z,20.77
2018-07-28T20:21:07.702Z,20.72
2018-07-28T20:23:34.748Z,20.81
2018-07-28T20:26:01.682Z,20.69
2018-07-28T20:28:28.809Z,20.68
2018-07-28T20:30:55.717Z,20.65
2018-07-28T20:33:22.607Z,20.62
2018-07-28T20:35:49.594Z,20.72
2018-07-28T20:38:16.481Z,20.64
2018-07-28T20:40:43.400Z,20.62
2018-07-28T20:43:10.696Z,20.57
2018-07-28T20:45:37.612Z,20.46
2018-07-28T20:48:04.646Z,20.65
2018-07-28T20:50:31.552Z,20.57
2018-07-28T20:52:58.472Z,20.44
2018-07-28T20:55:25.391Z,20.38
2018-07-28T20:57:52.289Z,20.41
2018-07-28T21:00:19.206Z,20.44
2018-07-28T21:02:46.093Z,20.36
2018-07-28T21:05:13.014Z,20.31
2018-07-28T21:07:39.937Z,20.26
2018-07-28T21:10:07.014Z,20.26
2018-07-28T21:12:33.895Z,20.24
2018-07-28T21:15:00.912Z,20.17
2018-07-28T21:17:27.766Z,20.23
2018-07-28T21:19:54.707Z,20.27
2018-07-28T21:22:21.616Z,20.41
2018-07-28T21:24:48.708Z,20.37
2018-07-28T21:27:15.637Z,20.34
2018-07-28T21:29:42.750Z,20.34
2018-07-28T21:32:09.691Z,20.28
2018-07-28T21:34:36.633Z,20.18
2018-07-28T21:37:03.851Z,20.20
2018-07-28T21:39:30.780Z,20.14
2018-07-28T21:41:57.725Z,20.11
2018-07-28T21:44:24.672Z,20.25
2018-07-28T21:46:51.614Z,20.23
2018-07-28T21:49:18.536Z,20.21
2018-07-28T21:51:45.467Z,20.20
2018-07-28T21:54:12.389Z,20.07
2018-07-28T21:56:39.332Z,20.16
2018-07-28T21:59:06.277Z,20.13
2018-07-28T22:01:33.288Z,20.07
2018-07-28T22:04:02.090Z,20.23
2018-07-28T22:06:29.937Z,20.13
2018-07-28T22:08:56.901Z,20.15
2018-07-28T22:11:23.866Z,19.93
2018-07-28T22:13:51.089Z,19.86
2018-07-28T22:16:18.029Z,19.80
2018-07-28T22:18:44.946Z,19.92
2018-07-28T22:21:11.917Z,19.79
2018-07-28T22:23:38.932Z,19.73
2018-07-28T22:26:05.982Z,19.60
2018-07-28T22:28:32.918Z,19.57
2018-07-28T22:30:59.919Z,19.57
2018-07-28T22:33:26.856Z,19.47
2018-07-28T22:35:53.962Z,19.52
2018-07-28T22:38:20.908Z,19.34
2018-07-28T22:40:47.917Z,19.34
2018-07-28T22:43:14.844Z,19.28
2018-07-28T22:45:41.766Z,19.27
2018-07-28T22:48:08.733Z,19.25
2018-07-28T22:50:35.660Z,19.13
2018-07-28T22:53:02.600Z,19.23
2018-07-28T22:55:29.542Z,18.98
2018-07-28T22:57:56.443Z,19.13
2018-07-28T23:00:23.364Z,18.98
2018-07-28T23:02:50.300Z,18.83
2018-07-28T23:05:17.233Z,18.94
2018-07-28T23:07:44.156Z,18.87
2018-07-28T23:10:11.064Z,18.93
2018-07-28T23:12:37.993Z,18.75
2018-07-28T23:15:05.084Z,18.80
2018-07-28T23:17:31.981Z,18.78
2018-07-28T23:19:58.882Z,18.90
2018-07-28T23:22:25.792Z,18.85
2018-07-28T23:24:52.725Z,18.85
2018-07-28T23:27:19.664Z,18.84
2018-07-28T23:29:46.599Z,18.83
2018-07-28T23:32:13.534Z,18.83
2018-07-28T23:34:40.467Z,18.79
2018-07-28T23:37:07.407Z,18.65
2018-07-28T23:39:34.310Z,18.64
2018-07-28T23:42:01.217Z,18.50
2018-07-28T23:44:28.122Z,18.28
2018-07-28T23:46:56.059Z,18.49
2018-07-28T23:49:22.975Z,18.44
2018-07-28T23:51:49.936Z,18.42
2018-07-28T23:54:16.860Z,18.59
2018-07-28T23:56:43.776Z,18.58
2018-07-28T23:59:10.673Z,18.64
